Axtell, Nebraska
Current Conditions -  °F | °C
As of 5:15 PM on Tuesday 25 Nov 2014 (Local Time) from KHDE Reporting Station
Overcast Overcast  
Wind Chill: 40°   Ceiling: 12000
Heat Index: 46°   Visibility: 10mi
Dew Point: 17°   Wind: 14mph
Humidity: 32%   Direction: 240°WSW
Pressure: 29.84"   Gusts: 17mph
Location:  40.48°N, 99.13°W
Report Text: KHDE 252315Z AUTO 24012G15KT 10SM SCT065 SCT075 OVC120 08/M08 A2984 RMK AO2 T00791081
Loading
Personal Weather Stations






























Interactive Weather Map New forecast layout! Learn more

10-Day Weather Forecast

Advertisements
Track Severe Weather on mobile